sensor_id;sensor_type;location;lat;lon;timestamp;P1;durP1;ratioP1;P2;durP2;ratioP2
18290;SDS011;9271;48.590;8.866;2023-07-29T00:00:42;8.70;;;4.40;;
18290;SDS011;9271;48.590;8.866;2023-07-29T00:03:11;9.87;;;5.70;;
18290;SDS011;9271;48.590;8.866;2023-07-29T00:05:59;7.40;;;4.60;;
18290;SDS011;9271;48.590;8.866;2023-07-29T00:08:31;11.83;;;5.40;;
18290;SDS011;9271;48.590;8.866;2023-07-29T00:11:00;11.50;;;5.17;;
18290;SDS011;9271;48.590;8.866;2023-07-29T00:13:26;10.60;;;4.77;;
18290;SDS011;9271;48.590;8.866;2023-07-29T00:15:53;7.50;;;4.93;;
18290;SDS011;9271;48.590;8.866;2023-07-29T00:18:21;11.30;;;5.43;;
18290;SDS011;9271;48.590;8.866;2023-07-29T00:20:48;8.90;;;5.10;;
18290;SDS011;9271;48.590;8.866;2023-07-29T00:23:15;5.67;;;4.63;;
18290;SDS011;9271;48.590;8.866;2023-07-29T00:25:45;8.80;;;4.87;;
18290;SDS011;9271;48.590;8.866;2023-07-29T00:28:12;5.50;;;4.73;;
18290;SDS011;9271;48.590;8.866;2023-07-29T00:30:38;5.57;;;4.47;;
18290;SDS011;9271;48.590;8.866;2023-07-29T00:33:05;7.60;;;4.63;;
18290;SDS011;9271;48.590;8.866;2023-07-29T00:35:32;7.63;;;5.63;;
18290;SDS011;9271;48.590;8.866;2023-07-29T00:37:59;7.03;;;4.47;;
18290;SDS011;9271;48.590;8.866;2023-07-29T00:40:27;5.87;;;4.40;;
18290;SDS011;9271;48.590;8.866;2023-07-29T00:42:56;6.13;;;5.33;;
18290;SDS011;9271;48.590;8.866;2023-07-29T00:45:23;7.50;;;5.07;;
18290;SDS011;9271;48.590;8.866;2023-07-29T00:47:51;6.23;;;4.37;;
18290;SDS011;9271;48.590;8.866;2023-07-29T00:50:17;9.23;;;5.30;;
18290;SDS011;9271;48.590;8.866;2023-07-29T00:52:44;7.17;;;4.67;;
18290;SDS011;9271;48.590;8.866;2023-07-29T00:55:10;11.17;;;5.07;;
18290;SDS011;9271;48.590;8.866;2023-07-29T00:57:37;8.77;;;5.67;;
18290;SDS011;9271;48.590;8.866;2023-07-29T01:00:06;10.50;;;6.07;;
18290;SDS011;9271;48.590;8.866;2023-07-29T01:02:34;10.87;;;6.37;;
18290;SDS011;9271;48.590;8.866;2023-07-29T01:05:01;6.80;;;6.03;;
18290;SDS011;9271;48.590;8.866;2023-07-29T01:07:29;7.63;;;6.83;;
18290;SDS011;9271;48.590;8.866;2023-07-29T01:10:00;12.50;;;7.00;;
18290;SDS011;9271;48.590;8.866;2023-07-29T01:12:33;8.83;;;5.90;;
18290;SDS011;9271;48.590;8.866;2023-07-29T01:15:11;9.73;;;6.10;;
18290;SDS011;9271;48.590;8.866;2023-07-29T01:17:43;9.13;;;6.33;;
18290;SDS011;9271;48.590;8.866;2023-07-29T01:20:14;6.77;;;6.07;;
18290;SDS011;9271;48.590;8.866;2023-07-29T01:22:42;8.20;;;6.03;;
18290;SDS011;9271;48.590;8.866;2023-07-29T01:25:11;7.00;;;5.90;;
18290;SDS011;9271;48.590;8.866;2023-07-29T01:27:37;7.23;;;6.03;;
18290;SDS011;9271;48.590;8.866;2023-07-29T01:30:05;10.57;;;6.47;;
18290;SDS011;9271;48.590;8.866;2023-07-29T01:32:34;8.97;;;6.53;;
18290;SDS011;9271;48.590;8.866;2023-07-29T01:35:08;9.30;;;6.87;;
18290;SDS011;9271;48.590;8.866;2023-07-29T01:37:41;12.03;;;7.60;;
18290;SDS011;9271;48.590;8.866;2023-07-29T01:40:12;9.43;;;7.43;;
18290;SDS011;9271;48.590;8.866;2023-07-29T01:42:39;12.30;;;7.57;;
18290;SDS011;9271;48.590;8.866;2023-07-29T01:45:06;11.87;;;7.30;;
18290;SDS011;9271;48.590;8.866;2023-07-29T01:47:33;10.30;;;6.70;;
18290;SDS011;9271;48.590;8.866;2023-07-29T01:50:00;10.43;;;6.63;;
18290;SDS011;9271;48.590;8.866;2023-07-29T01:52:26;7.37;;;6.10;;
18290;SDS011;9271;48.590;8.866;2023-07-29T01:54:53;6.90;;;6.00;;
18290;SDS011;9271;48.590;8.866;2023-07-29T01:57:21;10.17;;;7.40;;
18290;SDS011;9271;48.590;8.866;2023-07-29T01:59:47;11.33;;;7.63;;
18290;SDS011;9271;48.590;8.866;2023-07-29T02:02:14;11.43;;;7.10;;
18290;SDS011;9271;48.590;8.866;2023-07-29T02:04:41;27.33;;;8.30;;
18290;SDS011;9271;48.590;8.866;2023-07-29T02:07:08;10.43;;;6.67;;
18290;SDS011;9271;48.590;8.866;2023-07-29T02:09:34;6.83;;;5.80;;
18290;SDS011;9271;48.590;8.866;2023-07-29T02:12:01;15.23;;;6.37;;
18290;SDS011;9271;48.590;8.866;2023-07-29T02:14:29;7.87;;;5.50;;
18290;SDS011;9271;48.590;8.866;2023-07-29T02:16:56;7.93;;;6.50;;
18290;SDS011;9271;48.590;8.866;2023-07-29T02:19:22;13.47;;;6.73;;
18290;SDS011;9271;48.590;8.866;2023-07-29T02:21:49;8.97;;;5.60;;
18290;SDS011;9271;48.590;8.866;2023-07-29T02:24:16;63.00;;;7.90;;
18290;SDS011;9271;48.590;8.866;2023-07-29T02:26:42;8.23;;;6.30;;
18290;SDS011;9271;48.590;8.866;2023-07-29T02:29:09;8.10;;;6.20;;
18290;SDS011;9271;48.590;8.866;2023-07-29T02:31:37;7.57;;;5.60;;
18290;SDS011;9271;48.590;8.866;2023-07-29T02:34:03;9.77;;;5.80;;
18290;SDS011;9271;48.590;8.866;2023-07-29T02:36:30;6.10;;;5.33;;
18290;SDS011;9271;48.590;8.866;2023-07-29T02:38:57;9.27;;;5.20;;
18290;SDS011;9271;48.590;8.866;2023-07-29T02:41:24;5.30;;;4.77;;
18290;SDS011;9271;48.590;8.866;2023-07-29T02:43:50;7.03;;;5.13;;
18290;SDS011;9271;48.590;8.866;2023-07-29T02:46:17;6.17;;;4.43;;
18290;SDS011;9271;48.590;8.866;2023-07-29T02:48:45;6.37;;;4.90;;
18290;SDS011;9271;48.590;8.866;2023-07-29T02:51:12;5.20;;;4.70;;
18290;SDS011;9271;48.590;8.866;2023-07-29T02:53:39;5.10;;;4.70;;
18290;SDS011;9271;48.590;8.866;2023-07-29T02:56:05;4.80;;;4.37;;
18290;SDS011;9271;48.590;8.866;2023-07-29T02:58:34;4.80;;;4.40;;
18290;SDS011;9271;48.590;8.866;2023-07-29T03:01:01;5.60;;;4.60;;
18290;SDS011;9271;48.590;8.866;2023-07-29T03:03:28;6.07;;;4.20;;
18290;SDS011;9271;48.590;8.866;2023-07-29T03:05:58;5.67;;;4.53;;
18290;SDS011;9271;48.590;8.866;2023-07-29T03:08:26;6.23;;;4.13;;
18290;SDS011;9271;48.590;8.866;2023-07-29T03:10:53;6.57;;;4.13;;
18290;SDS011;9271;48.590;8.866;2023-07-29T03:13:20;7.43;;;3.90;;
18290;SDS011;9271;48.590;8.866;2023-07-29T03:15:47;7.63;;;4.43;;
18290;SDS011;9271;48.590;8.866;2023-07-29T03:18:13;5.63;;;4.20;;
18290;SDS011;9271;48.590;8.866;2023-07-29T03:20:40;12.10;;;4.00;;
18290;SDS011;9271;48.590;8.866;2023-07-29T03:23:08;5.53;;;3.87;;
18290;SDS011;9271;48.590;8.866;2023-07-29T03:25:35;7.00;;;3.83;;
18290;SDS011;9271;48.590;8.866;2023-07-29T03:28:02;7.03;;;3.73;;
18290;SDS011;9271;48.590;8.866;2023-07-29T03:30:29;7.13;;;4.00;;
18290;SDS011;9271;48.590;8.866;2023-07-29T03:32:55;8.00;;;4.07;;
18290;SDS011;9271;48.590;8.866;2023-07-29T03:35:22;5.07;;;4.17;;
18290;SDS011;9271;48.590;8.866;2023-07-29T03:37:48;6.57;;;3.97;;
18290;SDS011;9271;48.590;8.866;2023-07-29T03:40:16;4.17;;;3.77;;
18290;SDS011;9271;48.590;8.866;2023-07-29T03:42:43;5.87;;;3.73;;
18290;SDS011;9271;48.590;8.866;2023-07-29T03:45:10;4.23;;;3.90;;
18290;SDS011;9271;48.590;8.866;2023-07-29T03:47:36;6.70;;;4.20;;
18290;SDS011;9271;48.590;8.866;2023-07-29T03:50:04;16.87;;;5.47;;
18290;SDS011;9271;48.590;8.866;2023-07-29T03:52:31;4.57;;;4.17;;
18290;SDS011;9271;48.590;8.866;2023-07-29T03:54:58;21.93;;;5.07;;
18290;SDS011;9271;48.590;8.866;2023-07-29T03:57:26;6.30;;;5.27;;
18290;SDS011;9271;48.590;8.866;2023-07-29T03:59:54;6.83;;;4.50;;
18290;SDS011;9271;48.590;8.866;2023-07-29T04:02:20;6.03;;;4.57;;
18290;SDS011;9271;48.590;8.866;2023-07-29T04:04:47;4.67;;;4.23;;
18290;SDS011;9271;48.590;8.866;2023-07-29T04:07:14;4.30;;;3.90;;
18290;SDS011;9271;48.590;8.866;2023-07-29T04:09:40;4.87;;;3.60;;
18290;SDS011;9271;48.590;8.866;2023-07-29T04:12:08;7.43;;;3.50;;
18290;SDS011;9271;48.590;8.866;2023-07-29T04:14:37;6.97;;;4.00;;
18290;SDS011;9271;48.590;8.866;2023-07-29T04:17:04;5.97;;;4.00;;
18290;SDS011;9271;48.590;8.866;2023-07-29T04:19:31;3.87;;;3.43;;
18290;SDS011;9271;48.590;8.866;2023-07-29T04:21:57;5.00;;;3.87;;
18290;SDS011;9271;48.590;8.866;2023-07-29T04:24:24;4.23;;;3.70;;
18290;SDS011;9271;48.590;8.866;2023-07-29T04:26:51;8.93;;;4.20;;
18290;SDS011;9271;48.590;8.866;2023-07-29T04:29:17;6.67;;;4.10;;
18290;SDS011;9271;48.590;8.866;2023-07-29T04:31:45;6.43;;;4.53;;
18290;SDS011;9271;48.590;8.866;2023-07-29T04:34:12;6.90;;;3.93;;
18290;SDS011;9271;48.590;8.866;2023-07-29T04:36:38;5.10;;;3.57;;
18290;SDS011;9271;48.590;8.866;2023-07-29T04:39:05;6.07;;;3.70;;
18290;SDS011;9271;48.590;8.866;2023-07-29T04:41:32;7.60;;;3.83;;
18290;SDS011;9271;48.590;8.866;2023-07-29T04:43:59;7.80;;;5.10;;
18290;SDS011;9271;48.590;8.866;2023-07-29T04:46:26;12.90;;;4.87;;
18290;SDS011;9271;48.590;8.866;2023-07-29T04:48:54;9.73;;;4.70;;
18290;SDS011;9271;48.590;8.866;2023-07-29T04:51:20;7.20;;;4.33;;
18290;SDS011;9271;48.590;8.866;2023-07-29T04:53:47;6.20;;;3.63;;
18290;SDS011;9271;48.590;8.866;2023-07-29T04:56:14;7.80;;;4.07;;
18290;SDS011;9271;48.590;8.866;2023-07-29T04:58:40;4.93;;;3.60;;
18290;SDS011;9271;48.590;8.866;2023-07-29T05:01:07;3.87;;;3.47;;
18290;SDS011;9271;48.590;8.866;2023-07-29T05:03:34;4.43;;;3.60;;
18290;SDS011;9271;48.590;8.866;2023-07-29T05:06:03;3.77;;;3.40;;
18290;SDS011;9271;48.590;8.866;2023-07-29T05:08:30;6.40;;;3.50;;
18290;SDS011;9271;48.590;8.866;2023-07-29T05:10:56;4.00;;;3.57;;
18290;SDS011;9271;48.590;8.866;2023-07-29T05:13:23;6.07;;;2.90;;
18290;SDS011;9271;48.590;8.866;2023-07-29T05:15:50;6.20;;;2.97;;
18290;SDS011;9271;48.590;8.866;2023-07-29T05:18:17;3.67;;;3.17;;
18290;SDS011;9271;48.590;8.866;2023-07-29T05:20:44;5.53;;;3.27;;
18290;SDS011;9271;48.590;8.866;2023-07-29T05:23:12;3.67;;;3.10;;
18290;SDS011;9271;48.590;8.866;2023-07-29T05:25:38;9.07;;;3.53;;
18290;SDS011;9271;48.590;8.866;2023-07-29T05:28:05;9.23;;;4.50;;
18290;SDS011;9271;48.590;8.866;2023-07-29T05:30:32;4.50;;;3.47;;
18290;SDS011;9271;48.590;8.866;2023-07-29T05:33:02;6.60;;;3.43;;
18290;SDS011;9271;48.590;8.866;2023-07-29T05:35:29;6.63;;;3.40;;
18290;SDS011;9271;48.590;8.866;2023-07-29T05:37:56;8.87;;;3.67;;
18290;SDS011;9271;48.590;8.866;2023-07-29T05:40:24;6.20;;;3.03;;
18290;SDS011;9271;48.590;8.866;2023-07-29T05:42:52;6.20;;;2.97;;
18290;SDS011;9271;48.590;8.866;2023-07-29T05:45:18;5.43;;;2.90;;
18290;SDS011;9271;48.590;8.866;2023-07-29T05:47:45;4.20;;;2.67;;
18290;SDS011;9271;48.590;8.866;2023-07-29T05:50:12;3.10;;;2.80;;
18290;SDS011;9271;48.590;8.866;2023-07-29T05:52:39;5.60;;;2.70;;
18290;SDS011;9271;48.590;8.866;2023-07-29T05:55:06;4.47;;;2.53;;
18290;SDS011;9271;48.590;8.866;2023-07-29T05:57:34;5.27;;;2.63;;
18290;SDS011;9271;48.590;8.866;2023-07-29T06:00:01;4.13;;;2.57;;
18290;SDS011;9271;48.590;8.866;2023-07-29T06:02:27;3.83;;;2.40;;
18290;SDS011;9271;48.590;8.866;2023-07-29T06:04:54;4.33;;;2.60;;
18290;SDS011;9271;48.590;8.866;2023-07-29T06:07:21;5.90;;;2.60;;
18290;SDS011;9271;48.590;8.866;2023-07-29T06:09:47;4.90;;;2.87;;
18290;SDS011;9271;48.590;8.866;2023-07-29T06:12:14;5.63;;;2.70;;
18290;SDS011;9271;48.590;8.866;2023-07-29T06:14:42;4.27;;;2.43;;
18290;SDS011;9271;48.590;8.866;2023-07-29T06:17:09;3.43;;;2.50;;
18290;SDS011;9271;48.590;8.866;2023-07-29T06:19:36;2.87;;;2.50;;
18290;SDS011;9271;48.590;8.866;2023-07-29T06:22:03;2.40;;;2.20;;
18290;SDS011;9271;48.590;8.866;2023-07-29T06:24:30;4.67;;;2.50;;
18290;SDS011;9271;48.590;8.866;2023-07-29T06:26:57;3.83;;;2.20;;
18290;SDS011;9271;48.590;8.866;2023-07-29T06:29:24;4.33;;;2.90;;
18290;SDS011;9271;48.590;8.866;2023-07-29T06:31:52;3.87;;;2.50;;
18290;SDS011;9271;48.590;8.866;2023-07-29T06:34:19;5.60;;;2.63;;
18290;SDS011;9271;48.590;8.866;2023-07-29T06:36:46;5.43;;;2.87;;
18290;SDS011;9271;48.590;8.866;2023-07-29T06:39:12;6.43;;;2.80;;
18290;SDS011;9271;48.590;8.866;2023-07-29T06:41:39;3.40;;;2.70;;
18290;SDS011;9271;48.590;8.866;2023-07-29T06:44:06;4.03;;;2.40;;
18290;SDS011;9271;48.590;8.866;2023-07-29T06:46:32;3.97;;;2.90;;
18290;SDS011;9271;48.590;8.866;2023-07-29T06:49:00;6.53;;;4.77;;
18290;SDS011;9271;48.590;8.866;2023-07-29T06:51:27;5.93;;;3.10;;
18290;SDS011;9271;48.590;8.866;2023-07-29T06:53:57;2.63;;;1.83;;
18290;SDS011;9271;48.590;8.866;2023-07-29T06:56:24;3.00;;;2.00;;
18290;SDS011;9271;48.590;8.866;2023-07-29T06:58:51;4.00;;;2.20;;
18290;SDS011;9271;48.590;8.866;2023-07-29T07:01:17;3.77;;;2.30;;
18290;SDS011;9271;48.590;8.866;2023-07-29T07:03:44;4.63;;;2.63;;
18290;SDS011;9271;48.590;8.866;2023-07-29T07:06:12;3.40;;;2.40;;
18290;SDS011;9271;48.590;8.866;2023-07-29T07:08:39;3.83;;;2.40;;
18290;SDS011;9271;48.590;8.866;2023-07-29T07:11:06;5.10;;;2.70;;
18290;SDS011;9271;48.590;8.866;2023-07-29T07:13:33;3.90;;;2.80;;
18290;SDS011;9271;48.590;8.866;2023-07-29T07:16:00;3.43;;;3.13;;
18290;SDS011;9271;48.590;8.866;2023-07-29T07:18:26;3.30;;;2.80;;
18290;SDS011;9271;48.590;8.866;2023-07-29T07:20:53;3.13;;;2.50;;
18290;SDS011;9271;48.590;8.866;2023-07-29T07:23:21;3.03;;;2.80;;
18290;SDS011;9271;48.590;8.866;2023-07-29T07:25:48;3.03;;;2.60;;
18290;SDS011;9271;48.590;8.866;2023-07-29T07:28:14;4.60;;;2.53;;
18290;SDS011;9271;48.590;8.866;2023-07-29T07:30:41;4.80;;;2.70;;
18290;SDS011;9271;48.590;8.866;2023-07-29T07:33:08;2.70;;;2.50;;
18290;SDS011;9271;48.590;8.866;2023-07-29T07:35:34;2.33;;;2.17;;
18290;SDS011;9271;48.590;8.866;2023-07-29T07:38:01;1.80;;;1.70;;
18290;SDS011;9271;48.590;8.866;2023-07-29T07:40:30;8.30;;;2.27;;
18290;SDS011;9271;48.590;8.866;2023-07-29T07:42:57;4.20;;;2.13;;
18290;SDS011;9271;48.590;8.866;2023-07-29T07:45:23;2.90;;;2.20;;
18290;SDS011;9271;48.590;8.866;2023-07-29T07:47:51;2.87;;;2.10;;
18290;SDS011;9271;48.590;8.866;2023-07-29T07:50:18;4.13;;;2.30;;
18290;SDS011;9271;48.590;8.866;2023-07-29T07:52:45;2.67;;;2.20;;
18290;SDS011;9271;48.590;8.866;2023-07-29T07:55:11;8.10;;;2.47;;
18290;SDS011;9271;48.590;8.866;2023-07-29T07:57:39;3.53;;;2.33;;
18290;SDS011;9271;48.590;8.866;2023-07-29T08:00:06;3.33;;;2.60;;
18290;SDS011;9271;48.590;8.866;2023-07-29T08:02:34;2.67;;;2.40;;
18290;SDS011;9271;48.590;8.866;2023-07-29T08:05:01;2.73;;;2.17;;
18290;SDS011;9271;48.590;8.866;2023-07-29T08:07:27;2.67;;;2.47;;
18290;SDS011;9271;48.590;8.866;2023-07-29T08:09:54;2.23;;;2.03;;
18290;SDS011;9271;48.590;8.866;2023-07-29T08:12:21;3.50;;;2.10;;
18290;SDS011;9271;48.590;8.866;2023-07-29T08:14:49;4.17;;;2.20;;
18290;SDS011;9271;48.590;8.866;2023-07-29T08:17:15;3.00;;;2.20;;
18290;SDS011;9271;48.590;8.866;2023-07-29T08:19:42;2.03;;;1.90;;
18290;SDS011;9271;48.590;8.866;2023-07-29T08:22:09;4.37;;;1.87;;
18290;SDS011;9271;48.590;8.866;2023-07-29T08:24:35;2.17;;;1.63;;
18290;SDS011;9271;48.590;8.866;2023-07-29T08:27:02;2.00;;;1.90;;
18290;SDS011;9271;48.590;8.866;2023-07-29T08:29:29;2.10;;;1.90;;
18290;SDS011;9271;48.590;8.866;2023-07-29T08:31:57;2.40;;;1.93;;
18290;SDS011;9271;48.590;8.866;2023-07-29T08:34:24;1.97;;;1.80;;
18290;SDS011;9271;48.590;8.866;2023-07-29T08:36:50;4.20;;;1.67;;
18290;SDS011;9271;48.590;8.866;2023-07-29T08:39:17;1.93;;;1.40;;
18290;SDS011;9271;48.590;8.866;2023-07-29T08:41:45;2.43;;;1.33;;
18290;SDS011;9271;48.590;8.866;2023-07-29T08:44:18;2.73;;;1.20;;
18290;SDS011;9271;48.590;8.866;2023-07-29T08:46:48;1.47;;;1.37;;
18290;SDS011;9271;48.590;8.866;2023-07-29T08:49:16;1.53;;;1.23;;
18290;SDS011;9271;48.590;8.866;2023-07-29T08:51:53;3.27;;;1.30;;
18290;SDS011;9271;48.590;8.866;2023-07-29T08:54:21;1.40;;;1.30;;
18290;SDS011;9271;48.590;8.866;2023-07-29T08:56:48;1.60;;;1.50;;
18290;SDS011;9271;48.590;8.866;2023-07-29T08:59:16;3.10;;;1.90;;
18290;SDS011;9271;48.590;8.866;2023-07-29T09:01:43;1.77;;;1.67;;
18290;SDS011;9271;48.590;8.866;2023-07-29T09:04:10;1.93;;;1.53;;
18290;SDS011;9271;48.590;8.866;2023-07-29T09:06:38;1.37;;;1.37;;
18290;SDS011;9271;48.590;8.866;2023-07-29T09:09:06;1.47;;;1.37;;
18290;SDS011;9271;48.590;8.866;2023-07-29T09:11:33;1.35;;;1.23;;
18290;SDS011;9271;48.590;8.866;2023-07-29T09:14:01;2.85;;;1.50;;
18290;SDS011;9271;48.590;8.866;2023-07-29T09:16:27;1.73;;;1.63;;
18290;SDS011;9271;48.590;8.866;2023-07-29T09:18:55;2.25;;;1.70;;
18290;SDS011;9271;48.590;8.866;2023-07-29T09:21:26;1.92;;;1.83;;
18290;SDS011;9271;48.590;8.866;2023-07-29T09:23:55;2.22;;;1.60;;
18290;SDS011;9271;48.590;8.866;2023-07-29T09:26:22;2.00;;;1.90;;
18290;SDS011;9271;48.590;8.866;2023-07-29T09:28:51;2.58;;;2.10;;
18290;SDS011;9271;48.590;8.866;2023-07-29T09:31:19;2.22;;;1.92;;
18290;SDS011;9271;48.590;8.866;2023-07-29T09:33:46;2.67;;;2.00;;
18290;SDS011;9271;48.590;8.866;2023-07-29T09:36:13;3.20;;;1.90;;
18290;SDS011;9271;48.590;8.866;2023-07-29T09:38:40;2.03;;;1.93;;
18290;SDS011;9271;48.590;8.866;2023-07-29T09:41:09;2.20;;;2.00;;
18290;SDS011;9271;48.590;8.866;2023-07-29T09:43:39;1.70;;;1.60;;
18290;SDS011;9271;48.590;8.866;2023-07-29T09:46:05;2.40;;;2.20;;
18290;SDS011;9271;48.590;8.866;2023-07-29T09:48:33;1.80;;;1.70;;
18290;SDS011;9271;48.590;8.866;2023-07-29T09:51:01;3.37;;;1.73;;
18290;SDS011;9271;48.590;8.866;2023-07-29T09:53:38;2.33;;;1.80;;
18290;SDS011;9271;48.590;8.866;2023-07-29T09:56:07;1.90;;;1.80;;
18290;SDS011;9271;48.590;8.866;2023-07-29T09:58:34;4.25;;;1.90;;
18290;SDS011;9271;48.590;8.866;2023-07-29T10:01:03;1.92;;;1.70;;
18290;SDS011;9271;48.590;8.866;2023-07-29T10:03:29;1.80;;;1.70;;
18290;SDS011;9271;48.590;8.866;2023-07-29T10:05:59;1.70;;;1.60;;
18290;SDS011;9271;48.590;8.866;2023-07-29T10:08:26;1.87;;;1.77;;
18290;SDS011;9271;48.590;8.866;2023-07-29T10:10:54;1.87;;;1.77;;
18290;SDS011;9271;48.590;8.866;2023-07-29T10:13:23;2.43;;;1.87;;
18290;SDS011;9271;48.590;8.866;2023-07-29T10:15:51;4.17;;;1.80;;
18290;SDS011;9271;48.590;8.866;2023-07-29T10:18:20;1.60;;;1.50;;
18290;SDS011;9271;48.590;8.866;2023-07-29T10:20:48;1.90;;;1.80;;
18290;SDS011;9271;48.590;8.866;2023-07-29T10:23:17;2.08;;;1.50;;
18290;SDS011;9271;48.590;8.866;2023-07-29T10:25:46;2.10;;;1.60;;
18290;SDS011;9271;48.590;8.866;2023-07-29T10:28:16;2.00;;;1.90;;
18290;SDS011;9271;48.590;8.866;2023-07-29T10:30:47;2.10;;;2.00;;
18290;SDS011;9271;48.590;8.866;2023-07-29T10:33:14;3.05;;;1.80;;
18290;SDS011;9271;48.590;8.866;2023-07-29T10:35:41;2.20;;;2.00;;
18290;SDS011;9271;48.590;8.866;2023-07-29T10:38:08;2.07;;;1.97;;
18290;SDS011;9271;48.590;8.866;2023-07-29T10:40:45;2.25;;;1.67;;
18290;SDS011;9271;48.590;8.866;2023-07-29T10:43:15;1.95;;;1.83;;
18290;SDS011;9271;48.590;8.866;2023-07-29T10:45:45;2.00;;;1.88;;
18290;SDS011;9271;48.590;8.866;2023-07-29T10:48:39;2.28;;;1.92;;
18290;SDS011;9271;48.590;8.866;2023-07-29T10:51:26;1.90;;;1.75;;
18290;SDS011;9271;48.590;8.866;2023-07-29T10:53:58;1.73;;;1.63;;
18290;SDS011;9271;48.590;8.866;2023-07-29T10:56:27;1.88;;;1.63;;
18290;SDS011;9271;48.590;8.866;2023-07-29T10:58:55;1.90;;;1.80;;
18290;SDS011;9271;48.590;8.866;2023-07-29T11:01:30;1.90;;;1.80;;
18290;SDS011;9271;48.590;8.866;2023-07-29T11:07:08;2.90;;;1.98;;
18290;SDS011;9271;48.590;8.866;2023-07-29T11:09:51;1.98;;;1.88;;
18290;SDS011;9271;48.590;8.866;2023-07-29T11:12:33;3.05;;;2.10;;
18290;SDS011;9271;48.590;8.866;2023-07-29T11:15:02;2.10;;;2.00;;
18290;SDS011;9271;48.590;8.866;2023-07-29T11:17:32;1.90;;;1.80;;
18290;SDS011;9271;48.590;8.866;2023-07-29T11:20:00;2.35;;;2.00;;
18290;SDS011;9271;48.590;8.866;2023-07-29T11:22:28;2.20;;;1.90;;
18290;SDS011;9271;48.590;8.866;2023-07-29T11:24:54;1.92;;;1.83;;
18290;SDS011;9271;48.590;8.866;2023-07-29T11:27:21;2.05;;;1.83;;
18290;SDS011;9271;48.590;8.866;2023-07-29T11:29:48;2.10;;;2.00;;
18290;SDS011;9271;48.590;8.866;2023-07-29T11:32:15;2.10;;;1.90;;
18290;SDS011;9271;48.590;8.866;2023-07-29T11:34:43;1.98;;;1.88;;
18290;SDS011;9271;48.590;8.866;2023-07-29T11:37:10;1.98;;;1.88;;
18290;SDS011;9271;48.590;8.866;2023-07-29T11:39:39;1.92;;;1.80;;
18290;SDS011;9271;48.590;8.866;2023-07-29T11:42:06;2.10;;;1.90;;
18290;SDS011;9271;48.590;8.866;2023-07-29T11:44:32;2.58;;;2.13;;
18290;SDS011;9271;48.590;8.866;2023-07-29T11:46:59;2.00;;;1.90;;
18290;SDS011;9271;48.590;8.866;2023-07-29T11:49:26;4.32;;;3.92;;
18290;SDS011;9271;48.590;8.866;2023-07-29T11:51:54;3.35;;;3.03;;
18290;SDS011;9271;48.590;8.866;2023-07-29T11:54:20;2.10;;;2.00;;
18290;SDS011;9271;48.590;8.866;2023-07-29T11:56:47;2.08;;;1.98;;
18290;SDS011;9271;48.590;8.866;2023-07-29T11:59:14;1.83;;;1.73;;
18290;SDS011;9271;48.590;8.866;2023-07-29T12:01:41;2.20;;;2.00;;
18290;SDS011;9271;48.590;8.866;2023-07-29T12:04:08;2.20;;;2.10;;
18290;SDS011;9271;48.590;8.866;2023-07-29T12:06:35;1.83;;;1.73;;
18290;SDS011;9271;48.590;8.866;2023-07-29T12:09:04;2.17;;;2.05;;
18290;SDS011;9271;48.590;8.866;2023-07-29T12:11:32;2.00;;;1.90;;
18290;SDS011;9271;48.590;8.866;2023-07-29T12:13:59;1.95;;;1.85;;
18290;SDS011;9271;48.590;8.866;2023-07-29T12:16:26;1.73;;;1.63;;
18290;SDS011;9271;48.590;8.866;2023-07-29T12:18:59;1.83;;;1.73;;
18290;SDS011;9271;48.590;8.866;2023-07-29T12:21:26;1.90;;;1.80;;
18290;SDS011;9271;48.590;8.866;2023-07-29T12:23:55;3.55;;;1.95;;
18290;SDS011;9271;48.590;8.866;2023-07-29T12:26:27;1.90;;;1.80;;
18290;SDS011;9271;48.590;8.866;2023-07-29T12:28:54;2.03;;;1.90;;
18290;SDS011;9271;48.590;8.866;2023-07-29T12:31:21;2.85;;;1.90;;
18290;SDS011;9271;48.590;8.866;2023-07-29T12:33:55;1.83;;;1.73;;
18290;SDS011;9271;48.590;8.866;2023-07-29T12:36:22;1.85;;;1.75;;
18290;SDS011;9271;48.590;8.866;2023-07-29T12:38:53;2.55;;;1.80;;
18290;SDS011;9271;48.590;8.866;2023-07-29T12:41:24;1.85;;;1.75;;
18290;SDS011;9271;48.590;8.866;2023-07-29T12:43:52;2.40;;;2.00;;
18290;SDS011;9271;48.590;8.866;2023-07-29T12:46:19;1.83;;;1.73;;
18290;SDS011;9271;48.590;8.866;2023-07-29T12:48:46;1.88;;;1.77;;
18290;SDS011;9271;48.590;8.866;2023-07-29T12:51:12;2.00;;;1.88;;
18290;SDS011;9271;48.590;8.866;2023-07-29T12:53:39;1.92;;;1.83;;
18290;SDS011;9271;48.590;8.866;2023-07-29T12:56:06;1.95;;;1.85;;
18290;SDS011;9271;48.590;8.866;2023-07-29T12:58:32;2.45;;;2.08;;
18290;SDS011;9271;48.590;8.866;2023-07-29T13:01:00;2.22;;;2.13;;
18290;SDS011;9271;48.590;8.866;2023-07-29T13:03:27;1.80;;;1.70;;
18290;SDS011;9271;48.590;8.866;2023-07-29T13:05:54;3.83;;;1.88;;
18290;SDS011;9271;48.590;8.866;2023-07-29T13:08:20;2.38;;;2.17;;
18290;SDS011;9271;48.590;8.866;2023-07-29T13:10:48;2.40;;;2.23;;
18290;SDS011;9271;48.590;8.866;2023-07-29T13:13:14;2.27;;;2.07;;
18290;SDS011;9271;48.590;8.866;2023-07-29T13:15:41;2.03;;;1.80;;
18290;SDS011;9271;48.590;8.866;2023-07-29T13:18:09;2.10;;;1.90;;
18290;SDS011;9271;48.590;8.866;2023-07-29T13:20:36;2.13;;;1.93;;
18290;SDS011;9271;48.590;8.866;2023-07-29T13:23:02;2.30;;;2.10;;
18290;SDS011;9271;48.590;8.866;2023-07-29T13:25:29;1.90;;;1.70;;
18290;SDS011;9271;48.590;8.866;2023-07-29T13:27:56;3.95;;;1.80;;
18290;SDS011;9271;48.590;8.866;2023-07-29T13:30:22;1.90;;;1.80;;
18290;SDS011;9271;48.590;8.866;2023-07-29T13:32:49;1.85;;;1.75;;
18290;SDS011;9271;48.590;8.866;2023-07-29T13:35:17;2.70;;;1.90;;
18290;SDS011;9271;48.590;8.866;2023-07-29T13:37:44;2.20;;;1.97;;
18290;SDS011;9271;48.590;8.866;2023-07-29T13:40:10;1.87;;;1.77;;
18290;SDS011;9271;48.590;8.866;2023-07-29T13:42:37;2.07;;;1.97;;
18290;SDS011;9271;48.590;8.866;2023-07-29T13:45:04;2.20;;;2.10;;
18290;SDS011;9271;48.590;8.866;2023-07-29T13:47:31;2.10;;;1.90;;
18290;SDS011;9271;48.590;8.866;2023-07-29T13:49:59;2.23;;;2.00;;
18290;SDS011;9271;48.590;8.866;2023-07-29T13:52:27;1.93;;;1.83;;
18290;SDS011;9271;48.590;8.866;2023-07-29T13:54:54;2.00;;;1.90;;
18290;SDS011;9271;48.590;8.866;2023-07-29T13:57:20;2.50;;;1.80;;
18290;SDS011;9271;48.590;8.866;2023-07-29T13:59:47;3.67;;;2.10;;
18290;SDS011;9271;48.590;8.866;2023-07-29T14:02:14;2.43;;;2.17;;
18290;SDS011;9271;48.590;8.866;2023-07-29T14:04:40;1.90;;;1.80;;
18290;SDS011;9271;48.590;8.866;2023-07-29T14:07:07;2.10;;;1.90;;
18290;SDS011;9271;48.590;8.866;2023-07-29T14:09:35;3.23;;;2.00;;
18290;SDS011;9271;48.590;8.866;2023-07-29T14:12:03;1.90;;;1.80;;
18290;SDS011;9271;48.590;8.866;2023-07-29T14:14:30;2.10;;;1.83;;
18290;SDS011;9271;48.590;8.866;2023-07-29T14:16:57;2.10;;;1.90;;
18290;SDS011;9271;48.590;8.866;2023-07-29T14:19:24;3.17;;;2.00;;
18290;SDS011;9271;48.590;8.866;2023-07-29T14:21:50;1.80;;;1.70;;
18290;SDS011;9271;48.590;8.866;2023-07-29T14:24:17;2.07;;;1.97;;
18290;SDS011;9271;48.590;8.866;2023-07-29T14:26:46;1.97;;;1.87;;
18290;SDS011;9271;48.590;8.866;2023-07-29T14:29:12;2.20;;;2.10;;
18290;SDS011;9271;48.590;8.866;2023-07-29T14:31:39;2.20;;;1.97;;
18290;SDS011;9271;48.590;8.866;2023-07-29T14:34:06;2.23;;;2.13;;
18290;SDS011;9271;48.590;8.866;2023-07-29T14:36:32;2.03;;;1.93;;
18290;SDS011;9271;48.590;8.866;2023-07-29T14:38:59;2.00;;;1.90;;
18290;SDS011;9271;48.590;8.866;2023-07-29T14:41:26;2.73;;;2.00;;
18290;SDS011;9271;48.590;8.866;2023-07-29T14:43:54;2.00;;;1.90;;
18290;SDS011;9271;48.590;8.866;2023-07-29T14:46:20;2.10;;;2.00;;
18290;SDS011;9271;48.590;8.866;2023-07-29T14:48:47;2.37;;;2.10;;
18290;SDS011;9271;48.590;8.866;2023-07-29T14:51:14;2.30;;;2.05;;
18290;SDS011;9271;48.590;8.866;2023-07-29T14:53:40;2.10;;;2.00;;
18290;SDS011;9271;48.590;8.866;2023-07-29T14:56:08;2.00;;;1.90;;
18290;SDS011;9271;48.590;8.866;2023-07-29T14:58:34;2.10;;;2.00;;
18290;SDS011;9271;48.590;8.866;2023-07-29T15:01:02;2.10;;;2.00;;
18290;SDS011;9271;48.590;8.866;2023-07-29T15:03:29;2.10;;;2.00;;
18290;SDS011;9271;48.590;8.866;2023-07-29T15:05:56;2.80;;;2.07;;